sensor_id;sensor_type;location;lat;lon;timestamp;pressure;altitude;pressure_sealevel;temperature;humidity
26978;BME280;56314;48.088;11.642;2023-03-26T00:01:15;94993.97;;;7.49;64.40
26978;BME280;56314;48.088;11.642;2023-03-26T00:03:41;95001.59;;;7.52;64.65
26978;BME280;56314;48.088;11.642;2023-03-26T00:06:11;94984.47;;;7.48;64.72
26978;BME280;56314;48.088;11.642;2023-03-26T00:08:38;94988.44;;;7.53;64.45
26978;BME280;56314;48.088;11.642;2023-03-26T00:11:06;94986.53;;;7.55;64.17
26978;BME280;56314;48.088;11.642;2023-03-26T00:13:32;94989.69;;;7.48;64.81
26978;BME280;56314;48.088;11.642;2023-03-26T00:15:58;94981.75;;;7.49;64.31
26978;BME280;56314;48.088;11.642;2023-03-26T00:18:24;94986.63;;;7.54;64.29
26978;BME280;56314;48.088;11.642;2023-03-26T00:20:56;94981.41;;;7.54;64.27
26978;BME280;56314;48.088;11.642;2023-03-26T00:23:22;94988.03;;;7.47;64.51
26978;BME280;56314;48.088;11.642;2023-03-26T00:25:47;94979.59;;;7.43;64.86
26978;BME280;56314;48.088;11.642;2023-03-26T00:28:15;94978.19;;;7.50;64.07
26978;BME280;56314;48.088;11.642;2023-03-26T00:30:41;94984.81;;;7.43;64.19
26978;BME280;56314;48.088;11.642;2023-03-26T00:33:06;94975.50;;;7.39;64.27
26978;BME280;56314;48.088;11.642;2023-03-26T00:35:35;94972.72;;;7.29;64.82
26978;BME280;56314;48.088;11.642;2023-03-26T00:38:00;94979.59;;;7.30;64.48
26978;BME280;56314;48.088;11.642;2023-03-26T00:40:26;94972.63;;;7.31;65.07
26978;BME280;56314;48.088;11.642;2023-03-26T00:42:56;94970.09;;;7.29;65.31
26978;BME280;56314;48.088;11.642;2023-03-26T00:45:21;94960.50;;;7.30;65.13
26978;BME280;56314;48.088;11.642;2023-03-26T00:47:47;94966.66;;;7.29;65.61
26978;BME280;56314;48.088;11.642;2023-03-26T00:50:12;94962.72;;;7.23;65.49
26978;BME280;56314;48.088;11.642;2023-03-26T00:52:43;94962.09;;;7.19;65.89
26978;BME280;56314;48.088;11.642;2023-03-26T00:55:10;94963.13;;;7.17;65.67
26978;BME280;56314;48.088;11.642;2023-03-26T00:57:36;94956.69;;;7.09;65.79
26978;BME280;56314;48.088;11.642;2023-03-26T01:00:11;94960.03;;;7.12;65.73
26978;BME280;56314;48.088;11.642;2023-03-26T01:02:39;94965.75;;;7.17;65.67
26978;BME280;56314;48.088;11.642;2023-03-26T01:05:38;94960.84;;;7.12;65.96
26978;BME280;56314;48.088;11.642;2023-03-26T01:08:38;94971.31;;;6.99;66.54
26978;BME280;56314;48.088;11.642;2023-03-26T01:11:17;94960.56;;;7.04;66.06
26978;BME280;56314;48.088;11.642;2023-03-26T01:13:47;94962.88;;;6.96;66.61
26978;BME280;56314;48.088;11.642;2023-03-26T01:16:22;94963.81;;;6.95;67.21
26978;BME280;56314;48.088;11.642;2023-03-26T01:18:51;94969.13;;;6.93;66.66
26978;BME280;56314;48.088;11.642;2023-03-26T01:21:20;94971.97;;;6.90;67.54
26978;BME280;56314;48.088;11.642;2023-03-26T01:23:54;94962.88;;;6.83;67.12
26978;BME280;56314;48.088;11.642;2023-03-26T01:26:33;94971.88;;;6.78;68.05
26978;BME280;56314;48.088;11.642;2023-03-26T01:29:03;94970.63;;;6.84;67.81
26978;BME280;56314;48.088;11.642;2023-03-26T01:31:43;94963.94;;;6.80;67.73
26978;BME280;56314;48.088;11.642;2023-03-26T01:34:20;94965.69;;;6.80;68.11
26978;BME280;56314;48.088;11.642;2023-03-26T01:42:27;94954.75;;;6.74;68.48
26978;BME280;56314;48.088;11.642;2023-03-26T01:45:05;94952.34;;;6.71;68.43
26978;BME280;56314;48.088;11.642;2023-03-26T01:47:33;94946.94;;;6.74;68.52
26978;BME280;56314;48.088;11.642;2023-03-26T01:49:59;94943.19;;;6.78;68.78
26978;BME280;56314;48.088;11.642;2023-03-26T01:52:25;94940.47;;;6.67;69.11
26978;BME280;56314;48.088;11.642;2023-03-26T01:54:53;94935.25;;;6.67;69.12
26978;BME280;56314;48.088;11.642;2023-03-26T02:06:06;94930.88;;;6.55;70.33
26978;BME280;56314;48.088;11.642;2023-03-26T02:08:41;94929.22;;;6.54;70.19
26978;BME280;56314;48.088;11.642;2023-03-26T02:11:12;94923.06;;;6.55;70.28
26978;BME280;56314;48.088;11.642;2023-03-26T02:13:40;94927.22;;;6.57;70.33
26978;BME280;56314;48.088;11.642;2023-03-26T02:16:07;94925.88;;;6.52;70.41
26978;BME280;56314;48.088;11.642;2023-03-26T02:18:33;94918.66;;;6.55;70.32
26978;BME280;56314;48.088;11.642;2023-03-26T02:21:15;94912.63;;;6.55;69.97
26978;BME280;56314;48.088;11.642;2023-03-26T02:23:45;94916.25;;;6.65;69.37
26978;BME280;56314;48.088;11.642;2023-03-26T02:26:13;94912.72;;;6.66;70.01
26978;BME280;56314;48.088;11.642;2023-03-26T02:28:38;94916.25;;;6.65;69.73
26978;BME280;56314;48.088;11.642;2023-03-26T02:31:04;94911.97;;;6.64;69.60
26978;BME280;56314;48.088;11.642;2023-03-26T02:33:31;94906.44;;;6.69;69.33
26978;BME280;56314;48.088;11.642;2023-03-26T02:35:57;94901.09;;;6.83;68.79
26978;BME280;56314;48.088;11.642;2023-03-26T02:38:30;94902.13;;;6.81;68.99
26978;BME280;56314;48.088;11.642;2023-03-26T02:41:00;94912.16;;;6.74;69.40
26978;BME280;56314;48.088;11.642;2023-03-26T02:43:25;94899.22;;;6.72;69.94
26978;BME280;56314;48.088;11.642;2023-03-26T02:45:51;94890.47;;;6.73;69.61
26978;BME280;56314;48.088;11.642;2023-03-26T02:48:16;94898.09;;;6.76;69.72
26978;BME280;56314;48.088;11.642;2023-03-26T02:50:43;94887.84;;;6.73;70.47
26978;BME280;56314;48.088;11.642;2023-03-26T02:53:08;94891.28;;;6.74;69.72
26978;BME280;56314;48.088;11.642;2023-03-26T02:55:33;94891.19;;;6.75;70.11
26978;BME280;56314;48.088;11.642;2023-03-26T02:57:59;94883.84;;;6.81;69.63
26978;BME280;56314;48.088;11.642;2023-03-26T03:00:25;94878.97;;;6.76;69.80
26978;BME280;56314;48.088;11.642;2023-03-26T03:02:51;94873.88;;;6.74;70.36
26978;BME280;56314;48.088;11.642;2023-03-26T03:05:22;94879.81;;;6.76;70.51
26978;BME280;56314;48.088;11.642;2023-03-26T03:07:51;94870.41;;;6.74;70.09
26978;BME280;56314;48.088;11.642;2023-03-26T03:10:16;94866.44;;;6.68;70.70
26978;BME280;56314;48.088;11.642;2023-03-26T03:12:46;94856.88;;;6.69;71.10
26978;BME280;56314;48.088;11.642;2023-03-26T03:15:12;94854.38;;;6.67;70.87
26978;BME280;56314;48.088;11.642;2023-03-26T03:17:37;94851.03;;;6.65;70.95
26978;BME280;56314;48.088;11.642;2023-03-26T03:20:03;94845.81;;;6.65;71.34
26978;BME280;56314;48.088;11.642;2023-03-26T03:22:29;94838.06;;;6.63;70.94
26978;BME280;56314;48.088;11.642;2023-03-26T03:24:55;94841.34;;;6.67;71.75
26978;BME280;56314;48.088;11.642;2023-03-26T03:27:24;94830.97;;;6.66;72.20
26978;BME280;56314;48.088;11.642;2023-03-26T03:29:51;94827.66;;;6.63;71.97
26978;BME280;56314;48.088;11.642;2023-03-26T03:32:18;94827.56;;;6.65;71.60
26978;BME280;56314;48.088;11.642;2023-03-26T03:34:43;94825.75;;;6.66;71.56
26978;BME280;56314;48.088;11.642;2023-03-26T03:37:09;94830.03;;;6.67;70.95
26978;BME280;56314;48.088;11.642;2023-03-26T03:39:34;94824.94;;;6.65;71.94
26978;BME280;56314;48.088;11.642;2023-03-26T03:41:59;94829.31;;;6.65;71.57
26978;BME280;56314;48.088;11.642;2023-03-26T03:44:25;94828.50;;;6.64;71.68
26978;BME280;56314;48.088;11.642;2023-03-26T03:46:50;94827.56;;;6.65;71.81
26978;BME280;56314;48.088;11.642;2023-03-26T03:49:18;94825.34;;;6.72;71.43
26978;BME280;56314;48.088;11.642;2023-03-26T03:51:43;94821.78;;;6.73;71.83
26978;BME280;56314;48.088;11.642;2023-03-26T03:54:09;94818.72;;;6.79;71.90
26978;BME280;56314;48.088;11.642;2023-03-26T03:56:34;94820.63;;;6.77;71.31
26978;BME280;56314;48.088;11.642;2023-03-26T03:59:00;94816.47;;;6.74;71.11
26978;BME280;56314;48.088;11.642;2023-03-26T04:01:25;94817.41;;;6.73;71.69
26978;BME280;56314;48.088;11.642;2023-03-26T04:03:51;94823.44;;;6.74;71.44
26978;BME280;56314;48.088;11.642;2023-03-26T04:06:16;94813.63;;;6.77;70.90
26978;BME280;56314;48.088;11.642;2023-03-26T04:08:43;94814.97;;;6.83;71.09
26978;BME280;56314;48.088;11.642;2023-03-26T04:11:09;94811.44;;;6.84;70.99
26978;BME280;56314;48.088;11.642;2023-03-26T04:13:37;94795.66;;;6.86;71.98
26978;BME280;56314;48.088;11.642;2023-03-26T04:16:03;94793.63;;;6.89;71.25
26978;BME280;56314;48.088;11.642;2023-03-26T04:18:29;94795.31;;;6.90;71.47
26978;BME280;56314;48.088;11.642;2023-03-26T04:20:56;94796.16;;;6.91;71.97
26978;BME280;56314;48.088;11.642;2023-03-26T04:23:26;94790.94;;;6.91;71.39
26978;BME280;56314;48.088;11.642;2023-03-26T04:25:53;94791.53;;;6.95;70.87
26978;BME280;56314;48.088;11.642;2023-03-26T04:28:58;94781.91;;;6.95;70.94
26978;BME280;56314;48.088;11.642;2023-03-26T04:31:25;94781.19;;;6.93;71.33
26978;BME280;56314;48.088;11.642;2023-03-26T04:33:54;94782.91;;;7.05;70.30
26978;BME280;56314;48.088;11.642;2023-03-26T04:36:28;94784.19;;;7.00;70.21
26978;BME280;56314;48.088;11.642;2023-03-26T04:38:55;94777.09;;;7.02;70.75
26978;BME280;56314;48.088;11.642;2023-03-26T04:41:22;94781.59;;;7.00;70.65
26978;BME280;56314;48.088;11.642;2023-03-26T04:43:51;94772.09;;;6.99;70.88
26978;BME280;56314;48.088;11.642;2023-03-26T04:46:16;94763.09;;;7.03;70.16
26978;BME280;56314;48.088;11.642;2023-03-26T04:48:43;94769.97;;;7.04;70.64
26978;BME280;56314;48.088;11.642;2023-03-26T04:51:12;94764.63;;;7.05;70.86
26978;BME280;56314;48.088;11.642;2023-03-26T04:53:45;94761.94;;;7.07;70.21
26978;BME280;56314;48.088;11.642;2023-03-26T04:58:59;94751.25;;;7.10;70.12
26978;BME280;56314;48.088;11.642;2023-03-26T05:01:25;94756.03;;;7.16;69.56
26978;BME280;56314;48.088;11.642;2023-03-26T05:03:55;94745.59;;;7.16;69.45
26978;BME280;56314;48.088;11.642;2023-03-26T05:06:23;94746.75;;;7.12;70.06
26978;BME280;56314;48.088;11.642;2023-03-26T05:08:50;94739.63;;;7.14;70.02
26978;BME280;56314;48.088;11.642;2023-03-26T05:11:17;94739.63;;;7.14;70.77
26978;BME280;56314;48.088;11.642;2023-03-26T05:13:42;94736.09;;;7.15;69.93
26978;BME280;56314;48.088;11.642;2023-03-26T05:16:09;94728.97;;;7.17;69.94
26978;BME280;56314;48.088;11.642;2023-03-26T05:18:34;94726.22;;;7.19;69.86
26978;BME280;56314;48.088;11.642;2023-03-26T05:21:00;94714.97;;;7.18;69.40
26978;BME280;56314;48.088;11.642;2023-03-26T05:23:25;94717.09;;;7.24;69.87
26978;BME280;56314;48.088;11.642;2023-03-26T05:25:51;94715.78;;;7.19;69.52
26978;BME280;56314;48.088;11.642;2023-03-26T05:28:16;94717.47;;;7.20;69.82
26978;BME280;56314;48.088;11.642;2023-03-26T05:30:45;94716.97;;;7.15;70.33
26978;BME280;56314;48.088;11.642;2023-03-26T05:33:10;94711.84;;;7.13;70.01
26978;BME280;56314;48.088;11.642;2023-03-26T05:35:36;94710.69;;;7.17;69.94
26978;BME280;56314;48.088;11.642;2023-03-26T05:38:04;94720.75;;;7.11;70.02
26978;BME280;56314;48.088;11.642;2023-03-26T05:40:30;94712.97;;;7.22;69.52
26978;BME280;56314;48.088;11.642;2023-03-26T05:42:55;94719.47;;;7.16;69.86
26978;BME280;56314;48.088;11.642;2023-03-26T05:45:21;94711.16;;;7.22;69.87
26978;BME280;56314;48.088;11.642;2023-03-26T05:47:49;94706.91;;;7.21;69.50
26978;BME280;56314;48.088;11.642;2023-03-26T05:50:15;94700.28;;;7.29;69.88
26978;BME280;56314;48.088;11.642;2023-03-26T05:52:40;94706.91;;;7.21;69.83
26978;BME280;56314;48.088;11.642;2023-03-26T05:55:07;94697.88;;;7.26;69.83
26978;BME280;56314;48.088;11.642;2023-03-26T05:57:33;94694.81;;;7.20;70.42
26978;BME280;56314;48.088;11.642;2023-03-26T06:00:00;94685.78;;;7.24;70.77
26978;BME280;56314;48.088;11.642;2023-03-26T06:02:26;94679.72;;;7.24;70.87
26978;BME280;56314;48.088;11.642;2023-03-26T06:04:53;94681.50;;;7.23;71.04
26978;BME280;56314;48.088;11.642;2023-03-26T06:07:21;94678.50;;;7.17;71.45
26978;BME280;56314;48.088;11.642;2023-03-26T06:09:47;94670.31;;;7.10;72.13
26978;BME280;56314;48.088;11.642;2023-03-26T06:12:13;94671.16;;;7.11;72.83
26978;BME280;56314;48.088;11.642;2023-03-26T06:14:40;94662.47;;;7.10;72.96
26978;BME280;56314;48.088;11.642;2023-03-26T06:17:07;94655.97;;;7.16;72.97
26978;BME280;56314;48.088;11.642;2023-03-26T06:19:33;94654.91;;;7.18;73.05
26978;BME280;56314;48.088;11.642;2023-03-26T06:21:58;94658.81;;;7.13;73.98
26978;BME280;56314;48.088;11.642;2023-03-26T06:24:23;94660.22;;;7.17;74.04
26978;BME280;56314;48.088;11.642;2023-03-26T06:26:49;94664.41;;;7.19;73.85
26978;BME280;56314;48.088;11.642;2023-03-26T06:29:15;94659.19;;;7.19;74.73
26978;BME280;56314;48.088;11.642;2023-03-26T06:31:40;94658.47;;;7.17;74.49
26978;BME280;56314;48.088;11.642;2023-03-26T06:34:06;94663.13;;;7.25;73.87
26978;BME280;56314;48.088;11.642;2023-03-26T06:36:32;94660.38;;;7.27;73.83
26978;BME280;56314;48.088;11.642;2023-03-26T06:38:57;94650.16;;;7.23;74.45
26978;BME280;56314;48.088;11.642;2023-03-26T06:41:22;94650.44;;;7.32;74.00
26978;BME280;56314;48.088;11.642;2023-03-26T06:43:48;94639.72;;;7.35;73.60
26978;BME280;56314;48.088;11.642;2023-03-26T06:46:17;94631.66;;;7.38;73.39
26978;BME280;56314;48.088;11.642;2023-03-26T06:48:42;94639.72;;;7.46;73.40
26978;BME280;56314;48.088;11.642;2023-03-26T06:51:08;94632.03;;;7.45;73.95
26978;BME280;56314;48.088;11.642;2023-03-26T06:53:34;94630.84;;;7.49;74.08
26978;BME280;56314;48.088;11.642;2023-03-26T06:56:00;94639.03;;;7.44;74.43
26978;BME280;56314;48.088;11.642;2023-03-26T06:58:27;94639.03;;;7.44;74.53
26978;BME280;56314;48.088;11.642;2023-03-26T07:00:53;94636.16;;;7.47;74.93
26978;BME280;56314;48.088;11.642;2023-03-26T07:03:19;94644.84;;;7.48;74.69
26978;BME280;56314;48.088;11.642;2023-03-26T07:05:45;94636.88;;;7.61;74.74
26978;BME280;56314;48.088;11.642;2023-03-26T07:08:11;94628.34;;;7.59;74.61
26978;BME280;56314;48.088;11.642;2023-03-26T07:10:36;94630.34;;;7.66;74.44
26978;BME280;56314;48.088;11.642;2023-03-26T07:13:02;94631.94;;;7.58;75.77
26978;BME280;56314;48.088;11.642;2023-03-26T07:15:27;94623.09;;;7.59;75.81
26978;BME280;56314;48.088;11.642;2023-03-26T07:17:53;94623.59;;;7.52;77.04
26978;BME280;56314;48.088;11.642;2023-03-26T07:20:18;94618.38;;;7.52;76.79
26978;BME280;56314;48.088;11.642;2023-03-26T07:22:44;94617.78;;;7.49;76.67
26978;BME280;56314;48.088;11.642;2023-03-26T07:25:10;94614.81;;;7.53;76.90
26978;BME280;56314;48.088;11.642;2023-03-26T07:35:54;94570.41;;;7.31;82.36
26978;BME280;56314;48.088;11.642;2023-03-26T07:41:21;94542.88;;;7.27;85.34
26978;BME280;56314;48.088;11.642;2023-03-26T07:46:28;94523.41;;;7.31;88.61
26978;BME280;56314;48.088;11.642;2023-03-26T07:48:54;94513.69;;;7.33;86.05
26978;BME280;56314;48.088;11.642;2023-03-26T07:51:22;94521.84;;;7.28;84.90
26978;BME280;56314;48.088;11.642;2023-03-26T07:53:48;94514.38;;;7.23;85.53
26978;BME280;56314;48.088;11.642;2023-03-26T07:56:18;94511.06;;;7.21;84.25
26978;BME280;56314;48.088;11.642;2023-03-26T08:07:14;94496.69;;;7.38;89.61
26978;BME280;56314;48.088;11.642;2023-03-26T08:20:41;94461.00;;;7.60;82.44
26978;BME280;56314;48.088;11.642;2023-03-26T08:23:15;94446.13;;;7.72;81.79
26978;BME280;56314;48.088;11.642;2023-03-26T08:26:04;94456.09;;;7.78;82.67
26978;BME280;56314;48.088;11.642;2023-03-26T08:28:47;94453.09;;;7.83;82.56
26978;BME280;56314;48.088;11.642;2023-03-26T08:31:18;94455.34;;;7.88;82.49
26978;BME280;56314;48.088;11.642;2023-03-26T08:33:48;94454.19;;;7.80;83.09
26978;BME280;56314;48.088;11.642;2023-03-26T08:36:14;94450.91;;;7.88;80.68
26978;BME280;56314;48.088;11.642;2023-03-26T08:38:39;94452.34;;;7.92;81.44
26978;BME280;56314;48.088;11.642;2023-03-26T08:44:07;94445.34;;;7.93;78.08
26978;BME280;56314;48.088;11.642;2023-03-26T08:47:06;94436.28;;;7.97;78.26
26978;BME280;56314;48.088;11.642;2023-03-26T08:52:50;94445.56;;;8.22;77.48
26978;BME280;56314;48.088;11.642;2023-03-26T08:55:39;94465.69;;;8.31;77.45
26978;BME280;56314;48.088;11.642;2023-03-26T09:03:51;94435.47;;;8.60;76.56
26978;BME280;56314;48.088;11.642;2023-03-26T09:11:36;94448.81;;;8.57;74.02
26978;BME280;56314;48.088;11.642;2023-03-26T09:23:10;94425.59;;;8.21;74.18
26978;BME280;56314;48.088;11.642;2023-03-26T09:29:07;94413.78;;;8.06;74.47
26978;BME280;56314;48.088;11.642;2023-03-26T09:36:55;94396.88;;;8.10;78.10
26978;BME280;56314;48.088;11.642;2023-03-26T09:39:38;94393.25;;;8.01;77.19
26978;BME280;56314;48.088;11.642;2023-03-26T09:42:18;94396.56;;;8.03;77.97
26978;BME280;56314;48.088;11.642;2023-03-26T09:56:55;94374.31;;;7.55;84.74
26978;BME280;56314;48.088;11.642;2023-03-26T10:10:54;94389.41;;;7.84;86.01
26978;BME280;56314;48.088;11.642;2023-03-26T10:13:51;94379.91;;;7.83;85.91
26978;BME280;56314;48.088;11.642;2023-03-26T10:30:34;94374.38;;;7.76;86.72
26978;BME280;56314;48.088;11.642;2023-03-26T10:33:16;94373.31;;;7.67;86.64
26978;BME280;56314;48.088;11.642;2023-03-26T10:46:59;94400.41;;;7.66;88.99
26978;BME280;56314;48.088;11.642;2023-03-26T10:49:36;94402.00;;;7.58;91.90
26978;BME280;56314;48.088;11.642;2023-03-26T10:52:11;94406.19;;;7.49;93.21
26978;BME280;56314;48.088;11.642;2023-03-26T10:59:56;94391.44;;;7.15;95.95
26978;BME280;56314;48.088;11.642;2023-03-26T11:02:29;94395.72;;;7.16;94.90
26978;BME280;56314;48.088;11.642;2023-03-26T11:07:40;94355.81;;;7.26;95.94
26978;BME280;56314;48.088;11.642;2023-03-26T11:15:52;94365.59;;;7.45;95.51
26978;BME280;56314;48.088;11.642;2023-03-26T11:21:07;94364.13;;;7.52;94.57
26978;BME280;56314;48.088;11.642;2023-03-26T11:23:39;94364.00;;;7.53;96.23
26978;BME280;56314;48.088;11.642;2023-03-26T11:26:16;94364.22;;;7.62;96.47
26978;BME280;56314;48.088;11.642;2023-03-26T11:34:19;94349.75;;;7.58;96.70
26978;BME280;56314;48.088;11.642;2023-03-26T11:36:50;94342.34;;;7.63;97.04
26978;BME280;56314;48.088;11.642;2023-03-26T11:39:28;94344.97;;;7.63;95.60
26978;BME280;56314;48.088;11.642;2023-03-26T11:42:10;94364.97;;;7.52;93.92
26978;BME280;56314;48.088;11.642;2023-03-26T11:44:41;94348.97;;;7.46;93.29
26978;BME280;56314;48.088;11.642;2023-03-26T11:47:12;94354.22;;;7.34;92.77
26978;BME280;56314;48.088;11.642;2023-03-26T11:49:40;94340.97;;;7.26;93.71
26978;BME280;56314;48.088;11.642;2023-03-26T11:52:10;94347.88;;;7.16;94.90
26978;BME280;56314;48.088;11.642;2023-03-26T11:54:36;94353.69;;;7.19;94.16
26978;BME280;56314;48.088;11.642;2023-03-26T11:57:06;94357.63;;;7.14;94.17
26978;BME280;56314;48.088;11.642;2023-03-26T11:59:57;94352.50;;;7.12;94.03
26978;BME280;56314;48.088;11.642;2023-03-26T12:02:39;94352.78;;;7.09;93.67
26978;BME280;56314;48.088;11.642;2023-03-26T12:05:18;94353.09;;;7.16;95.26
26978;BME280;56314;48.088;11.642;2023-03-26T12:07:51;94358.66;;;7.22;93.98
26978;BME280;56314;48.088;11.642;2023-03-26T12:10:36;94361.94;;;7.36;96.20
26978;BME280;56314;48.088;11.642;2023-03-26T12:16:18;94325.00;;;7.62;94.68
26978;BME280;56314;48.088;11.642;2023-03-26T12:19:04;94317.25;;;7.93;93.96
26978;BME280;56314;48.088;11.642;2023-03-26T12:21:51;94319.88;;;8.24;93.18
26978;BME280;56314;48.088;11.642;2023-03-26T12:24:30;94328.44;;;8.57;90.20
26978;BME280;56314;48.088;11.642;2023-03-26T12:29:49;94311.88;;;9.17;86.89
26978;BME280;56314;48.088;11.642;2023-03-26T12:32:17;94309.97;;;9.29;86.18
26978;BME280;56314;48.088;11.642;2023-03-26T12:34:43;94298.97;;;9.25;84.70
26978;BME280;56314;48.088;11.642;2023-03-26T12:37:37;94304.03;;;9.07;84.71
26978;BME280;56314;48.088;11.642;2023-03-26T12:40:25;94299.06;;;9.04;84.84
26978;BME280;56314;48.088;11.642;2023-03-26T12:42:58;94289.28;;;8.96;83.51
26978;BME280;56314;48.088;11.642;2023-03-26T12:45:37;94288.84;;;9.01;85.28
26978;BME280;56314;48.088;11.642;2023-03-26T12:48:04;94292.97;;;9.03;84.43
26978;BME280;56314;48.088;11.642;2023-03-26T12:56:34;94296.44;;;8.94;85.08
26978;BME280;56314;48.088;11.642;2023-03-26T13:17:32;94267.91;;;9.01;83.49
26978;BME280;56314;48.088;11.642;2023-03-26T13:20:04;94266.25;;;9.00;84.31
26978;BME280;56314;48.088;11.642;2023-03-26T13:22:47;94265.44;;;8.99;84.45
26978;BME280;56314;48.088;11.642;2023-03-26T13:25:36;94263.66;;;9.09;83.77
26978;BME280;56314;48.088;11.642;2023-03-26T13:31:13;94261.72;;;9.12;83.17
26978;BME280;56314;48.088;11.642;2023-03-26T13:39:26;94275.22;;;8.97;82.30
26978;BME280;56314;48.088;11.642;2023-03-26T13:42:19;94270.78;;;8.98;84.02
26978;BME280;56314;48.088;11.642;2023-03-26T13:47:53;94258.28;;;9.01;84.51
26978;BME280;56314;48.088;11.642;2023-03-26T13:50:31;94255.78;;;9.00;84.35
26978;BME280;56314;48.088;11.642;2023-03-26T13:53:07;94246.41;;;8.97;84.08
26978;BME280;56314;48.088;11.642;2023-03-26T13:55:46;94258.81;;;9.05;83.51
26978;BME280;56314;48.088;11.642;2023-03-26T13:58:19;94247.78;;;9.11;81.22
26978;BME280;56314;48.088;11.642;2023-03-26T14:03:24;94233.72;;;9.02;77.42
26978;BME280;56314;48.088;11.642;2023-03-26T14:05:54;94227.13;;;9.08;77.60
26978;BME280;56314;48.088;11.642;2023-03-26T14:08:27;94228.47;;;9.02;77.81
26978;BME280;56314;48.088;11.642;2023-03-26T14:11:10;94230.03;;;9.05;77.40
26978;BME280;56314;48.088;11.642;2023-03-26T14:13:50;94213.06;;;9.19;76.81
26978;BME280;56314;48.088;11.642;2023-03-26T14:16:26;94211.28;;;9.09;77.15
26978;BME280;56314;48.088;11.642;2023-03-26T14:19:26;94200.09;;;9.07;75.35
26978;BME280;56314;48.088;11.642;2023-03-26T14:27:18;94220.22;;;9.27;73.91
26978;BME280;56314;48.088;11.642;2023-03-26T14:38:10;94189.06;;;9.33;74.28
26978;BME280;56314;48.088;11.642;2023-03-26T14:40:55;94188.50;;;9.30;75.06
26978;BME280;56314;48.088;11.642;2023-03-26T14:49:24;94175.09;;;9.33;72.91
26978;BME280;56314;48.088;11.642;2023-03-26T14:54:37;94180.94;;;9.27;72.77
26978;BME280;56314;48.088;11.642;2023-03-26T14:57:16;94181.19;;;9.23;73.83
26978;BME280;56314;48.088;11.642;2023-03-26T15:16:39;94160.41;;;9.12;71.76
26978;BME280;56314;48.088;11.642;2023-03-26T15:19:42;94158.91;;;9.09;72.29
26978;BME280;56314;48.088;11.642;2023-03-26T15:33:39;94148.28;;;9.11;72.59
26978;BME280;56314;48.088;11.642;2023-03-26T15:44:52;94140.31;;;9.03;70.96
26978;BME280;56314;48.088;11.642;2023-03-26T15:47:42;94144.69;;;9.02;72.95
26978;BME280;56314;48.088;11.642;2023-03-26T15:52:57;94156.00;;;9.13;71.61
26978;BME280;56314;48.088;11.642;2023-03-26T15:55:33;94165.53;;;9.14;72.20
26978;BME280;56314;48.088;11.642;2023-03-26T15:58:10;94178.88;;;9.11;71.62
26978;BME280;56314;48.088;11.642;2023-03-26T16:11:51;94183.44;;;8.79;59.91
26978;BME280;56314;48.088;11.642;2023-03-26T16:14:40;94179.31;;;8.67;60.00
26978;BME280;56314;48.088;11.642;2023-03-26T16:17:17;94178.22;;;8.59;62.42
26978;BME280;56314;48.088;11.642;2023-03-26T16:19:54;94157.53;;;8.56;62.68
26978;BME280;56314;48.088;11.642;2023-03-26T16:22:52;94167.56;;;8.51;64.08
26978;BME280;56314;48.088;11.642;2023-03-26T16:27:45;94140.53;;;8.31;66.48
26978;BME280;56314;48.088;11.642;2023-03-26T16:30:30;94144.75;;;8.02;65.80
26978;BME280;56314;48.088;11.642;2023-03-26T16:33:06;94141.97;;;7.94;65.79
26978;BME280;56314;48.088;11.642;2023-03-26T16:35:58;94136.00;;;7.82;67.47
26978;BME280;56314;48.088;11.642;2023-03-26T16:38:26;94139.97;;;7.77;66.98
26978;BME280;56314;48.088;11.642;2023-03-26T16:44:18;94112.38;;;7.84;68.29
26978;BME280;56314;48.088;11.642;2023-03-26T16:52:34;94123.94;;;7.81;69.19
26978;BME280;56314;48.088;11.642;2023-03-26T17:01:10;94120.72;;;7.68;70.37
26978;BME280;56314;48.088;11.642;2023-03-26T17:03:42;94127.19;;;7.74;70.70
26978;BME280;56314;48.088;11.642;2023-03-26T17:09:16;94129.31;;;7.59;70.89
26978;BME280;56314;48.088;11.642;2023-03-26T17:11:58;94132.22;;;7.55;71.46
26978;BME280;56314;48.088;11.642;2023-03-26T17:14:44;94124.78;;;7.61;71.04
26978;BME280;56314;48.088;11.642;2023-03-26T17:25:42;94127.41;;;7.61;69.17
26978;BME280;56314;48.088;11.642;2023-03-26T17:33:33;94124.16;;;7.68;68.17
26978;BME280;56314;48.088;11.642;2023-03-26T17:37:00;94124.41;;;7.65;68.94
26978;BME280;56314;48.088;11.642;2023-03-26T17:39:17;94142.84;;;7.64;69.10
26978;BME280;56314;48.088;11.642;2023-03-26T17:42:15;94162.06;;;7.63;68.82
26978;BME280;56314;48.088;11.642;2023-03-26T17:44:49;94171.34;;;7.77;68.06
26978;BME280;56314;48.088;11.642;2023-03-26T17:47:25;94186.47;;;7.73;68.53
26978;BME280;56314;48.088;11.642;2023-03-26T17:50:11;94179.84;;;7.69;68.98
26978;BME280;56314;48.088;11.642;2023-03-26T17:52:53;94192.75;;;7.92;69.56
26978;BME280;56314;48.088;11.642;2023-03-26T17:55:24;94198.53;;;7.95;70.32
26978;BME280;56314;48.088;11.642;2023-03-26T17:57:57;94211.59;;;7.95;69.53
26978;BME280;56314;48.088;11.642;2023-03-26T18:00:31;94202.38;;;7.70;70.81
26978;BME280;56314;48.088;11.642;2023-03-26T18:03:13;94222.81;;;7.55;72.09
26978;BME280;56314;48.088;11.642;2023-03-26T18:05:41;94226.19;;;7.46;73.55
26978;BME280;56314;48.088;11.642;2023-03-26T18:10:45;94239.06;;;7.37;73.89
26978;BME280;56314;48.088;11.642;2023-03-26T18:16:37;94253.75;;;6.96;74.68
26978;BME280;56314;48.088;11.642;2023-03-26T18:19:09;94263.06;;;6.77;76.19
26978;BME280;56314;48.088;11.642;2023-03-26T18:21:43;94252.56;;;6.56;76.19
26978;BME280;56314;48.088;11.642;2023-03-26T18:24:14;94247.16;;;6.37;77.50
26978;BME280;56314;48.088;11.642;2023-03-26T18:26:47;94240.91;;;6.16;79.00
26978;BME280;56314;48.088;11.642;2023-03-26T18:29:33;94240.91;;;6.05;80.92
26978;BME280;56314;48.088;11.642;2023-03-26T18:34:48;94253.78;;;5.84;83.60
26978;BME280;56314;48.088;11.642;2023-03-26T18:37:23;94256.50;;;5.82;82.00
26978;BME280;56314;48.088;11.642;2023-03-26T18:40:07;94260.41;;;5.77;82.36